createdAt,value
2018-05-15T00:01:50.072Z,17.40
2018-05-15T00:04:17.743Z,17.40
2018-05-15T00:06:45.433Z,17.30
2018-05-15T00:09:12.391Z,17.40
2018-05-15T00:11:39.256Z,17.30
2018-05-15T00:14:06.112Z,17.30
2018-05-15T00:16:33.046Z,17.30
2018-05-15T00:18:59.965Z,17.30
2018-05-15T00:21:26.844Z,17.20
2018-05-15T00:23:53.779Z,17.20
2018-05-15T00:26:20.655Z,17.10
2018-05-15T00:28:48.257Z,17.10
2018-05-15T00:31:15.187Z,17.10
2018-05-15T00:33:42.053Z,17.10
2018-05-15T00:36:08.986Z,16.90
2018-05-15T00:38:35.911Z,16.90
2018-05-15T00:41:02.847Z,16.90
2018-05-15T00:43:29.708Z,16.80
2018-05-15T00:45:56.640Z,16.80
2018-05-15T00:48:23.567Z,16.80
2018-05-15T00:50:50.446Z,16.70
2018-05-15T00:53:17.367Z,16.70
2018-05-15T00:55:44.393Z,16.70
2018-05-15T00:58:11.333Z,16.70
2018-05-15T01:00:38.294Z,16.50
2018-05-15T01:03:05.162Z,16.40
2018-05-15T01:05:32.846Z,16.40
2018-05-15T01:08:00.470Z,16.40
2018-05-15T01:10:27.337Z,16.40
2018-05-15T01:12:54.501Z,16.30
2018-05-15T01:15:22.130Z,16.20
2018-05-15T01:17:49.074Z,16.10
2018-05-15T01:20:16.026Z,16.10
2018-05-15T01:22:42.972Z,16.10
2018-05-15T01:25:09.845Z,16.00
2018-05-15T01:27:38.256Z,16.00
2018-05-15T01:30:06.673Z,16.00
2018-05-15T01:32:34.886Z,16.00
2018-05-15T01:35:02.690Z,15.90
2018-05-15T01:37:30.433Z,15.80
2018-05-15T01:39:58.212Z,15.80
2018-05-15T01:42:25.090Z,15.80
2018-05-15T01:44:51.958Z,15.80
2018-05-15T01:47:18.954Z,15.90
2018-05-15T01:49:45.825Z,15.80
2018-05-15T01:52:12.773Z,15.90
2018-05-15T01:54:39.727Z,15.80
2018-05-15T01:57:06.690Z,15.80
2018-05-15T01:59:33.564Z,15.80
2018-05-15T02:02:00.429Z,15.70
2018-05-15T02:04:27.366Z,15.70
2018-05-15T02:06:54.233Z,15.60
2018-05-15T02:09:21.173Z,15.70
2018-05-15T02:11:48.101Z,15.70
2018-05-15T02:14:15.042Z,15.60
2018-05-15T02:16:42.054Z,15.60
2018-05-15T02:19:08.921Z,15.60
2018-05-15T02:21:35.849Z,15.60
2018-05-15T02:24:02.800Z,15.50
2018-05-15T02:26:30.399Z,15.50
2018-05-15T02:28:57.344Z,15.50
2018-05-15T02:31:24.218Z,15.50
2018-05-15T02:33:51.094Z,15.40
2018-05-15T02:36:18.035Z,15.30
2018-05-15T02:38:45.648Z,15.30
2018-05-15T02:41:12.649Z,15.30
2018-05-15T02:43:39.507Z,15.30
2018-05-15T02:46:06.471Z,15.30
2018-05-15T02:48:33.344Z,15.30
2018-05-15T02:51:00.282Z,15.30
2018-05-15T02:53:27.147Z,15.20
2018-05-15T02:55:54.091Z,15.30
2018-05-15T02:58:20.972Z,15.20
2018-05-15T03:00:48.592Z,15.30
2018-05-15T03:03:15.530Z,15.30
2018-05-15T03:05:42.404Z,15.30
2018-05-15T03:08:09.280Z,15.20
2018-05-15T03:10:36.212Z,15.20
2018-05-15T03:13:03.838Z,15.20
2018-05-15T03:15:30.699Z,15.30
2018-05-15T03:17:57.716Z,15.20
2018-05-15T03:20:24.655Z,15.30
2018-05-15T03:22:51.538Z,15.20
2018-05-15T03:25:18.482Z,15.20
2018-05-15T03:27:45.413Z,15.30
2018-05-15T03:30:12.262Z,15.30
2018-05-15T03:32:39.194Z,15.30
2018-05-15T03:35:06.126Z,15.20
2018-05-15T03:37:32.990Z,15.10
2018-05-15T03:39:59.986Z,15.30
2018-05-15T03:42:26.845Z,15.10
2018-05-15T03:44:53.725Z,15.10
2018-05-15T03:47:20.653Z,15.10
2018-05-15T03:49:47.525Z,15.10
2018-05-15T03:52:14.445Z,15.10
2018-05-15T03:54:41.318Z,15.00
2018-05-15T03:57:08.250Z,15.00
2018-05-15T03:59:35.173Z,15.00
2018-05-15T04:02:14.147Z,15.10
2018-05-15T04:04:53.808Z,15.10
2018-05-15T04:07:45.253Z,15.10
2018-05-15T04:10:12.155Z,15.10
2018-05-15T04:12:39.114Z,15.10
2018-05-15T04:15:06.041Z,15.00
2018-05-15T04:17:33.010Z,15.00
2018-05-15T04:19:59.919Z,14.90
2018-05-15T04:22:26.930Z,15.00
2018-05-15T04:24:54.890Z,15.00
2018-05-15T04:27:26.581Z,15.00
2018-05-15T04:30:00.764Z,15.00
2018-05-15T04:32:31.637Z,15.20
2018-05-15T04:34:58.655Z,15.40
2018-05-15T04:37:25.548Z,15.20
2018-05-15T04:39:52.517Z,15.30
2018-05-15T04:42:19.381Z,15.30
2018-05-15T04:44:47.070Z,15.30
2018-05-15T04:47:13.929Z,15.30
2018-05-15T04:49:40.866Z,15.30
2018-05-15T04:52:07.801Z,15.30
2018-05-15T04:54:34.680Z,15.30
2018-05-15T04:57:01.626Z,15.40
2018-05-15T04:59:28.593Z,15.40
2018-05-15T05:01:55.581Z,15.50
2018-05-15T05:04:23.330Z,15.80
2018-05-15T05:06:50.266Z,15.80
2018-05-15T05:09:27.754Z,15.70
2018-05-15T05:11:56.456Z,15.70
2018-05-15T05:14:24.350Z,15.70
2018-05-15T05:16:52.977Z,15.50
2018-05-15T05:19:20.591Z,15.60
2018-05-15T05:21:48.698Z,16.00
2018-05-15T05:24:15.636Z,16.50
2018-05-15T05:26:42.508Z,16.50
2018-05-15T05:29:09.491Z,16.50
2018-05-15T05:31:37.358Z,16.60
2018-05-15T05:34:04.404Z,16.90
2018-05-15T05:36:31.324Z,17.10
2018-05-15T05:38:58.215Z,17.10
2018-05-15T05:41:25.173Z,17.20
2018-05-15T05:43:52.051Z,17.00
2018-05-15T05:46:18.966Z,16.90
2018-05-15T05:48:45.977Z,17.00
2018-05-15T05:51:12.837Z,17.00
2018-05-15T05:53:39.769Z,17.00
2018-05-15T05:56:06.640Z,18.30
2018-05-15T05:58:33.562Z,17.50
2018-05-15T06:01:00.434Z,17.60
2018-05-15T06:03:27.370Z,17.40
2018-05-15T06:05:54.269Z,16.90
2018-05-15T06:08:21.201Z,17.10
2018-05-15T06:10:48.130Z,17.10
2018-05-15T06:13:15.001Z,16.80
2018-05-15T06:15:41.955Z,17.00
2018-05-15T06:18:08.897Z,16.80
2018-05-15T06:20:35.879Z,16.90
2018-05-15T06:23:02.914Z,16.80
2018-05-15T06:25:29.787Z,17.00
2018-05-15T06:27:56.726Z,16.90
2018-05-15T06:30:23.607Z,16.90
2018-05-15T06:32:50.566Z,16.80
2018-05-15T06:35:17.523Z,16.80
2018-05-15T06:37:44.401Z,16.80
2018-05-15T06:40:11.384Z,17.00
2018-05-15T06:42:38.286Z,17.10
2018-05-15T06:45:05.906Z,17.40
2018-05-15T06:47:33.829Z,17.40
2018-05-15T06:50:00.703Z,17.40
2018-05-15T06:52:27.650Z,17.50
2018-05-15T06:54:54.555Z,17.40
2018-05-15T06:57:21.488Z,17.70
2018-05-15T06:59:48.358Z,17.70
2018-05-15T07:02:15.310Z,17.60
2018-05-15T07:04:42.205Z,17.80
2018-05-15T07:07:09.082Z,18.00
2018-05-15T07:09:36.759Z,18.00
2018-05-15T07:12:03.680Z,18.00
2018-05-15T07:14:30.646Z,18.10
2018-05-15T07:16:58.182Z,18.30
2018-05-15T07:19:25.401Z,18.40
2018-05-15T07:21:52.708Z,17.90
2018-05-15T07:24:19.817Z,18.50
2018-05-15T07:26:46.679Z,18.70
2018-05-15T07:29:13.550Z,19.00
2018-05-15T07:31:40.485Z,18.90
2018-05-15T07:34:08.080Z,19.40
2018-05-15T07:36:35.024Z,19.40
2018-05-15T07:39:01.957Z,19.50
2018-05-15T07:41:28.843Z,19.80
2018-05-15T07:43:55.793Z,19.40
2018-05-15T07:46:22.658Z,20.80
2018-05-15T07:48:49.678Z,21.20
2018-05-15T07:51:16.574Z,21.80
2018-05-15T07:53:44.196Z,21.20
2018-05-15T07:56:11.122Z,21.20
2018-05-15T07:58:37.996Z,21.30
2018-05-15T08:01:04.941Z,21.00
2018-05-15T08:03:31.802Z,21.10
2018-05-15T08:05:58.725Z,20.50
2018-05-15T08:08:25.652Z,20.60
2018-05-15T08:10:52.608Z,20.70
2018-05-15T08:13:19.586Z,20.30
2018-05-15T08:15:47.265Z,20.40
2018-05-15T08:18:14.879Z,23.50
2018-05-15T08:20:41.877Z,23.40
2018-05-15T08:23:08.855Z,27.30
2018-05-15T08:25:35.725Z,28.20
2018-05-15T08:28:02.653Z,30.60
2018-05-15T08:30:29.507Z,31.90
2018-05-15T08:32:57.433Z,30.90
2018-05-15T08:35:24.340Z,29.50
2018-05-15T08:37:51.333Z,30.60
2018-05-15T08:40:18.234Z,30.70
2018-05-15T08:42:45.166Z,31.40
2018-05-15T08:45:12.038Z,31.10
2018-05-15T08:47:38.965Z,31.00
2018-05-15T08:50:05.889Z,31.50
2018-05-15T08:52:32.930Z,30.50
2018-05-15T08:54:59.774Z,32.60
2018-05-15T08:57:26.650Z,33.30
2018-05-15T08:59:53.565Z,32.60
2018-05-15T09:02:20.434Z,32.00
2018-05-15T09:04:47.353Z,31.30
2018-05-15T09:07:14.211Z,29.60
2018-05-15T09:09:41.063Z,29.20
2018-05-15T09:12:07.984Z,28.20
2018-05-15T09:14:34.833Z,27.30
2018-05-15T09:17:01.769Z,27.70
2018-05-15T09:19:28.612Z,28.00
2018-05-15T09:21:55.531Z,27.80
2018-05-15T09:24:22.478Z,28.20
2018-05-15T09:26:49.403Z,28.20
2018-05-15T09:29:16.296Z,27.10
2018-05-15T09:31:43.247Z,26.90
2018-05-15T09:34:10.101Z,26.50
2018-05-15T09:36:37.049Z,26.50
2018-05-15T09:39:04.985Z,27.40
2018-05-15T09:41:31.887Z,27.20
2018-05-15T09:43:58.888Z,28.40
2018-05-15T09:46:25.747Z,29.00
2018-05-15T09:48:52.722Z,28.50
2018-05-15T09:51:19.615Z,26.90
2018-05-15T09:53:46.560Z,27.60
2018-05-15T09:56:13.442Z,27.30
2018-05-15T09:58:40.380Z,26.40
2018-05-15T10:01:07.302Z,26.10
2018-05-15T10:03:34.246Z,25.80
2018-05-15T10:06:01.157Z,25.50
2018-05-15T10:08:28.032Z,25.30
2018-05-15T10:10:54.954Z,25.90
2018-05-15T10:13:21.817Z,27.00
2018-05-15T10:15:49.488Z,27.80
2018-05-15T10:18:16.353Z,27.70
2018-05-15T10:20:43.295Z,27.30
2018-05-15T10:23:10.187Z,26.60
2018-05-15T10:25:37.180Z,26.60
2018-05-15T10:28:04.150Z,26.10
2018-05-15T10:30:31.106Z,26.10
2018-05-15T10:32:57.963Z,25.80
2018-05-15T10:35:24.909Z,25.80
2018-05-15T10:37:51.873Z,26.00
2018-05-15T10:40:18.804Z,26.50
2018-05-15T10:42:45.754Z,26.30
2018-05-15T10:45:12.656Z,25.90
2018-05-15T10:47:39.527Z,25.10
2018-05-15T10:50:06.521Z,26.10
2018-05-15T10:52:33.441Z,26.10
2018-05-15T10:55:00.333Z,25.60
2018-05-15T10:57:28.297Z,26.00
2018-05-15T10:59:55.237Z,26.60
2018-05-15T11:02:22.173Z,27.00
2018-05-15T11:04:49.862Z,26.50
2018-05-15T11:07:19.431Z,26.50
2018-05-15T11:09:48.288Z,26.60
2018-05-15T11:12:15.385Z,26.10
2018-05-15T11:14:43.073Z,25.20
2018-05-15T11:17:09.930Z,25.20
2018-05-15T11:19:49.361Z,25.70
2018-05-15T11:22:29.181Z,26.40
2018-05-15T11:24:56.081Z,26.80
2018-05-15T11:27:23.665Z,27.10
2018-05-15T11:29:50.553Z,25.80
2018-05-15T11:32:17.500Z,25.40
2018-05-15T11:34:44.428Z,25.30
2018-05-15T11:37:15.671Z,25.20
2018-05-15T11:39:42.580Z,24.50
2018-05-15T11:42:10.419Z,25.10
2018-05-15T11:44:38.406Z,24.90
2018-05-15T11:47:17.318Z,25.70
2018-05-15T11:49:45.500Z,26.20
2018-05-15T11:52:12.546Z,26.20
2018-05-15T11:54:39.476Z,25.70
2018-05-15T11:57:06.424Z,24.80
2018-05-15T11:59:35.643Z,24.40
2018-05-15T12:02:04.589Z,23.90
2018-05-15T12:04:32.351Z,24.70
2018-05-15T12:07:08.643Z,24.90
2018-05-15T12:09:36.057Z,24.90
2018-05-15T12:12:03.013Z,24.60
2018-05-15T12:14:30.687Z,24.40
2018-05-15T12:16:58.211Z,24.40
2018-05-15T12:19:25.145Z,24.00
2018-05-15T12:21:52.152Z,24.40
2018-05-15T12:24:20.551Z,25.00
2018-05-15T12:26:47.788Z,24.80
2018-05-15T12:29:14.685Z,24.60
2018-05-15T12:31:42.434Z,24.20
2018-05-15T12:34:09.746Z,23.80
2018-05-15T12:36:37.559Z,23.50
2018-05-15T12:39:05.475Z,23.50
2018-05-15T12:41:35.992Z,23.80
2018-05-15T12:44:06.681Z,24.50
2018-05-15T12:46:35.014Z,24.80
2018-05-15T12:49:02.738Z,24.70
2018-05-15T12:51:29.699Z,24.60
2018-05-15T12:53:56.597Z,24.90
2018-05-15T12:56:23.562Z,25.40
2018-05-15T12:58:50.619Z,25.40
2018-05-15T13:01:17.487Z,25.10
2018-05-15T13:03:44.367Z,24.90
2018-05-15T13:06:11.301Z,24.90
2018-05-15T13:08:38.945Z,24.70
2018-05-15T13:11:05.921Z,25.00
2018-05-15T13:13:32.867Z,25.40
2018-05-15T13:15:59.811Z,25.30
2018-05-15T13:18:26.858Z,25.50
2018-05-15T13:20:53.856Z,25.20
2018-05-15T13:23:20.747Z,25.40
2018-05-15T13:25:47.720Z,25.00
2018-05-15T13:28:14.648Z,25.00
2018-05-15T13:30:41.585Z,25.10
2018-05-15T13:33:09.186Z,25.00
2018-05-15T13:35:36.148Z,24.90
2018-05-15T13:38:03.024Z,24.60
2018-05-15T13:40:30.641Z,25.20
2018-05-15T13:42:57.589Z,25.20
2018-05-15T13:45:24.515Z,25.30
2018-05-15T13:47:51.495Z,25.20
2018-05-15T13:50:18.485Z,25.40
2018-05-15T13:52:45.396Z,25.30
2018-05-15T13:55:12.309Z,25.10
2018-05-15T13:57:39.258Z,25.10
2018-05-15T14:00:06.141Z,25.00
2018-05-15T14:02:40.934Z,24.80
2018-05-15T14:05:08.719Z,24.60
2018-05-15T14:07:35.630Z,25.00
2018-05-15T14:10:02.577Z,25.00
2018-05-15T14:12:29.633Z,25.20
2018-05-15T14:14:57.468Z,25.00
2018-05-15T14:17:24.444Z,25.10
2018-05-15T14:19:51.370Z,24.90
2018-05-15T14:22:18.817Z,24.30
2018-05-15T14:24:49.683Z,24.60
2018-05-15T14:27:16.967Z,24.50
2018-05-15T14:29:43.823Z,24.60
2018-05-15T14:32:15.635Z,24.10
2018-05-15T14:34:42.520Z,24.20
2018-05-15T14:37:09.491Z,24.10
2018-05-15T14:39:36.852Z,24.40
2018-05-15T14:42:17.652Z,24.40
2018-05-15T14:44:44.582Z,24.40
2018-05-15T14:47:11.637Z,24.40
2018-05-15T14:49:42.423Z,24.20
2018-05-15T14:52:10.888Z,24.20
2018-05-15T14:54:38.925Z,24.50
2018-05-15T14:57:14.102Z,24.40
2018-05-15T14:59:42.733Z,24.60
2018-05-15T15:02:12.662Z,24.40
2018-05-15T15:04:41.959Z,24.40
2018-05-15T15:07:09.598Z,24.30
2018-05-15T15:09:36.553Z,24.30
2018-05-15T15:12:03.718Z,24.30
2018-05-15T15:14:31.395Z,24.30
2018-05-15T15:16:59.917Z,24.30
2018-05-15T15:19:28.251Z,24.00
2018-05-15T15:21:55.922Z,24.10
2018-05-15T15:24:22.790Z,24.10
2018-05-15T15:30:04.037Z,24.40
2018-05-15T15:44:13.822Z,22.90
2018-05-15T15:47:07.868Z,23.20
2018-05-15T15:58:43.067Z,23.80
2018-05-15T16:04:02.113Z,23.30
2018-05-15T16:06:29.054Z,23.40
2018-05-15T16:08:55.973Z,23.20
2018-05-15T16:11:22.894Z,23.40
2018-05-15T16:13:49.821Z,23.20
2018-05-15T16:16:17.557Z,23.10
2018-05-15T16:18:44.413Z,23.10
2018-05-15T16:21:11.270Z,22.90
2018-05-15T16:23:38.228Z,23.20
2018-05-15T16:26:05.853Z,23.60
2018-05-15T16:28:32.868Z,23.60
2018-05-15T16:31:00.717Z,23.90
2018-05-15T16:33:30.118Z,23.60
2018-05-15T16:35:57.790Z,23.60
2018-05-15T16:38:28.096Z,23.70
2018-05-15T16:40:57.893Z,23.40
2018-05-15T16:43:24.850Z,23.30
2018-05-15T16:45:52.661Z,23.10
2018-05-15T16:48:19.619Z,23.10
2018-05-15T16:50:47.791Z,23.00
2018-05-15T16:53:14.670Z,23.00
2018-05-15T16:55:41.629Z,22.60
2018-05-15T16:58:09.950Z,22.70
2018-05-15T17:00:37.555Z,22.70
2018-05-15T17:03:04.502Z,22.40
2018-05-15T17:05:31.892Z,22.60
2018-05-15T17:07:59.549Z,22.50
2018-05-15T17:10:26.439Z,22.50
2018-05-15T17:12:56.077Z,22.30
2018-05-15T17:15:22.958Z,22.40
2018-05-15T17:17:50.101Z,22.40
2018-05-15T17:20:19.734Z,22.40
2018-05-15T17:22:47.508Z,22.60
2018-05-15T17:25:15.712Z,22.60
2018-05-15T17:27:42.566Z,22.40
2018-05-15T17:30:11.426Z,22.40
2018-05-15T17:32:40.465Z,22.30
2018-05-15T17:35:14.177Z,22.00
2018-05-15T17:37:41.349Z,22.00
2018-05-15T17:40:09.842Z,22.00
2018-05-15T17:42:37.559Z,22.00
2018-05-15T17:45:04.573Z,22.10
2018-05-15T17:47:32.827Z,22.10
2018-05-15T17:50:02.658Z,21.80
2018-05-15T17:52:29.520Z,21.80
2018-05-15T17:54:56.548Z,21.60
2018-05-15T17:57:24.328Z,21.40
2018-05-15T17:59:51.345Z,20.90
2018-05-15T18:02:18.186Z,20.10
2018-05-15T18:04:45.151Z,19.50
2018-05-15T18:07:12.019Z,19.00
2018-05-15T18:09:38.927Z,18.60
2018-05-15T18:12:05.913Z,18.10
2018-05-15T18:14:43.266Z,18.00
2018-05-15T18:17:19.722Z,18.10
2018-05-15T18:19:46.669Z,17.70
2018-05-15T18:25:24.956Z,16.90
2018-05-15T18:32:14.110Z,16.40
2018-05-15T18:38:04.592Z,16.50
2018-05-15T18:43:56.239Z,16.30
2018-05-15T18:46:40.169Z,16.40
2018-05-15T18:55:12.696Z,16.40
2018-05-15T19:06:28.008Z,16.90
2018-05-15T19:12:06.867Z,17.10
2018-05-15T19:17:30.764Z,17.30
2018-05-15T19:20:00.106Z,17.20
2018-05-15T19:22:30.261Z,17.10
2018-05-15T19:24:57.942Z,17.10
2018-05-15T19:27:24.889Z,17.10
2018-05-15T19:29:53.660Z,17.00
2018-05-15T19:32:35.605Z,17.10
2018-05-15T19:35:07.574Z,17.00
2018-05-15T19:37:35.430Z,16.60
2018-05-15T19:40:09.013Z,16.60
2018-05-15T19:42:48.486Z,16.70
2018-05-15T19:45:17.304Z,16.70
2018-05-15T19:47:45.061Z,16.60
2018-05-15T19:50:11.966Z,16.60
2018-05-15T19:52:39.021Z,16.70
2018-05-15T19:55:05.946Z,16.70
2018-05-15T19:57:44.041Z,16.70
2018-05-15T20:00:11.903Z,16.80
2018-05-15T20:02:38.839Z,16.70
2018-05-15T20:05:09.178Z,16.50
2018-05-15T20:07:38.104Z,16.50
2018-05-15T20:10:05.265Z,16.40
2018-05-15T20:12:32.738Z,16.40
2018-05-15T20:15:02.805Z,16.40
2018-05-15T20:17:31.017Z,16.30
2018-05-15T20:20:03.552Z,16.40
2018-05-15T20:22:33.905Z,16.20
2018-05-15T20:25:04.386Z,16.00
2018-05-15T20:27:32.070Z,16.10
2018-05-15T20:30:00.130Z,16.00
2018-05-15T20:32:27.842Z,16.10
2018-05-15T20:34:54.968Z,16.10
2018-05-15T20:37:23.093Z,15.70
2018-05-15T20:39:50.306Z,15.40
2018-05-15T20:42:27.634Z,14.70
2018-05-15T20:44:55.360Z,14.50
2018-05-15T20:47:23.023Z,14.10
2018-05-15T20:49:49.862Z,13.90
2018-05-15T20:52:16.926Z,14.20
2018-05-15T20:54:44.315Z,14.20
2018-05-15T20:57:11.374Z,14.40
2018-05-15T20:59:38.244Z,14.70
2018-05-15T21:02:05.145Z,14.80
2018-05-15T21:04:32.113Z,14.90
2018-05-15T21:06:59.143Z,15.00
2018-05-15T21:09:26.004Z,15.10
2018-05-15T21:11:52.933Z,15.00
2018-05-15T21:14:31.469Z,15.00
2018-05-15T21:17:10.755Z,15.10
2018-05-15T21:19:47.865Z,15.10
2018-05-15T21:22:26.233Z,15.10
2018-05-15T21:24:53.973Z,15.00
2018-05-15T21:27:27.375Z,15.00
2018-05-15T21:29:55.059Z,15.00
2018-05-15T21:32:32.947Z,15.00
2018-05-15T21:35:00.605Z,15.00
2018-05-15T21:37:38.079Z,14.80
2018-05-15T21:40:10.300Z,14.80
2018-05-15T21:42:49.067Z,14.60
2018-05-15T21:45:27.512Z,14.70
2018-05-15T21:48:06.037Z,14.90
2018-05-15T21:50:45.603Z,14.90
2018-05-15T21:53:24.103Z,15.00
2018-05-15T21:55:59.555Z,15.10
2018-05-15T21:58:41.047Z,15.20
2018-05-15T22:01:13.025Z,15.10
2018-05-15T22:03:40.004Z,15.10
2018-05-15T22:06:06.949Z,15.00
2018-05-15T22:08:34.800Z,15.00
2018-05-15T22:11:13.510Z,14.90
2018-05-15T22:13:54.450Z,14.90
2018-05-15T22:16:34.155Z,14.90
2018-05-15T22:19:13.242Z,14.80
2018-05-15T22:21:52.306Z,14.60
2018-05-15T22:24:28.287Z,14.70
2018-05-15T22:26:55.164Z,14.60
2018-05-15T22:29:23.133Z,14.60
2018-05-15T22:31:50.118Z,14.60
2018-05-15T22:34:17.080Z,14.50
2018-05-15T22:36:43.958Z,14.60
2018-05-15T22:39:11.698Z,14.80
2018-05-15T22:41:38.642Z,14.80
2018-05-15T22:46:44.748Z,15.00
2018-05-15T22:49:17.982Z,15.10
2018-05-15T22:51:44.830Z,15.10
2018-05-15T22:54:11.701Z,15.20
2018-05-15T22:56:39.554Z,15.00
2018-05-15T22:59:06.410Z,15.10
2018-05-15T23:01:33.269Z,15.20
2018-05-15T23:04:00.958Z,15.30
2018-05-15T23:06:27.830Z,15.20
2018-05-15T23:08:54.782Z,15.20
2018-05-15T23:11:21.688Z,15.10
2018-05-15T23:13:49.314Z,15.40
2018-05-15T23:16:16.257Z,15.40
2018-05-15T23:18:43.209Z,15.50
2018-05-15T23:21:10.054Z,15.50
2018-05-15T23:23:37.036Z,15.50
2018-05-15T23:26:03.912Z,15.40
2018-05-15T23:28:31.633Z,15.40
2018-05-15T23:30:58.640Z,15.40
2018-05-15T23:33:25.596Z,15.20
2018-05-15T23:35:52.541Z,15.20
2018-05-15T23:38:19.592Z,15.20
2018-05-15T23:40:46.566Z,15.40
2018-05-15T23:43:13.481Z,15.40
2018-05-15T23:45:40.447Z,15.50
2018-05-15T23:48:07.369Z,15.50
2018-05-15T23:50:34.240Z,15.50
2018-05-15T23:53:01.172Z,15.50
2018-05-15T23:55:28.052Z,15.50
2018-05-15T23:57:55.061Z,15.50
